createdAt,value
2023-01-04T21:12:06.922Z,101966.66
2023-01-04T21:26:35.034Z,101941.38
2023-01-04T21:29:01.793Z,101946.97
2023-01-04T21:31:28.595Z,101966.59
2023-01-04T21:33:55.539Z,101966.13
2023-01-04T21:36:24.099Z,101953.97
2023-01-04T21:38:51.597Z,101953.41
2023-01-04T21:41:18.798Z,101962.09
2023-01-04T21:43:45.586Z,101965.75
2023-01-04T21:46:14.520Z,101955.38
2023-01-04T21:48:41.982Z,101955.47
2023-01-04T21:51:08.853Z,101953.34
2023-01-04T21:53:36.447Z,101929.72
2023-01-04T21:56:05.354Z,101910.50
2023-01-04T21:58:32.148Z,101946.50
2023-01-04T22:00:59.040Z,101949.16
2023-01-04T22:03:25.854Z,101932.03
2023-01-04T22:05:52.825Z,101919.25
2023-01-04T22:08:19.556Z,101958.78
2023-01-04T22:10:53.160Z,101931.72
2023-01-04T22:13:19.983Z,101885.84
2023-01-04T22:15:46.805Z,101938.59
2023-01-04T22:18:13.699Z,101945.06
2023-01-04T22:20:40.512Z,101941.91
2023-01-04T22:23:07.357Z,101938.72
2023-01-04T22:25:34.883Z,101842.28
2023-01-04T22:28:01.815Z,101917.56
2023-01-04T22:30:28.822Z,101933.06
2023-01-04T22:32:55.829Z,101916.59
2023-01-04T22:35:22.738Z,101932.28
2023-01-04T22:37:49.559Z,101914.81
2023-01-04T22:40:16.589Z,101934.34
2023-01-04T22:42:43.455Z,101913.13
2023-01-04T22:45:13.326Z,101926.81
2023-01-04T22:47:40.562Z,101922.81
2023-01-04T22:50:07.689Z,101897.28
2023-01-04T22:52:35.752Z,101931.09
2023-01-04T22:55:02.610Z,101933.84
2023-01-04T22:57:29.346Z,101926.78
2023-01-04T22:59:56.160Z,101898.19
2023-01-04T23:02:23.043Z,101932.81
2023-01-04T23:04:49.882Z,101926.19
2023-01-04T23:07:16.689Z,101896.28
2023-01-04T23:09:43.573Z,101892.03
2023-01-04T23:12:10.376Z,101899.91
2023-01-04T23:14:37.243Z,101925.44
2023-01-04T23:17:04.137Z,101928.25
2023-01-04T23:19:30.981Z,101895.00
2023-01-04T23:21:57.726Z,101896.00
2023-01-04T23:24:24.550Z,101921.44
2023-01-04T23:26:51.497Z,101918.06
2023-01-04T23:29:18.241Z,101911.84
2023-01-04T23:31:45.286Z,101892.03
2023-01-04T23:34:12.204Z,101901.09
2023-01-04T23:36:39.959Z,101888.72
2023-01-04T23:39:13.621Z,101888.13
2023-01-04T23:41:46.559Z,101873.72
2023-01-04T23:44:15.912Z,101909.56
2023-01-04T23:46:42.917Z,101857.13
2023-01-04T23:49:10.187Z,101863.88
2023-01-04T23:51:37.672Z,101871.78
2023-01-04T23:54:05.241Z,101891.25
2023-01-04T23:56:31.957Z,101844.81
2023-01-04T23:58:58.758Z,101852.19
